createdAt,value
2023-04-15T00:01:12.140Z,7.78
2023-04-15T00:03:39.306Z,7.67
2023-04-15T00:06:06.190Z,7.62
2023-04-15T00:08:33.324Z,7.74
2023-04-15T00:11:05.861Z,7.76
2023-04-15T00:13:35.328Z,7.71
2023-04-15T00:16:04.789Z,7.68
2023-04-15T00:18:37.504Z,7.61
2023-04-15T00:21:05.244Z,7.77
2023-04-15T00:23:34.395Z,7.70
2023-04-15T00:26:03.592Z,7.63
2023-04-15T00:28:33.654Z,7.55
2023-04-15T00:31:02.521Z,7.70
2023-04-15T00:33:34.281Z,7.65
2023-04-15T00:36:03.770Z,7.73
2023-04-15T00:38:30.333Z,7.59
2023-04-15T00:40:59.334Z,7.70
2023-04-15T00:43:26.729Z,7.67
2023-04-15T00:45:59.165Z,7.60
2023-04-15T00:48:28.091Z,7.68
2023-04-15T00:50:54.688Z,7.65
2023-04-15T00:53:21.821Z,7.55
2023-04-15T00:55:48.630Z,7.61
2023-04-15T00:58:20.704Z,7.60
2023-04-15T01:00:47.922Z,7.58
2023-04-15T01:03:16.931Z,7.42
2023-04-15T01:05:43.602Z,7.62
2023-04-15T01:08:11.452Z,7.61
2023-04-15T01:10:40.073Z,7.32
2023-04-15T01:13:06.938Z,7.60
2023-04-15T01:15:38.044Z,7.60
2023-04-15T01:18:05.322Z,7.65
2023-04-15T01:20:34.170Z,7.56
2023-04-15T01:23:01.488Z,7.68
2023-04-15T01:25:34.886Z,7.71
2023-04-15T01:28:02.290Z,7.59
2023-04-15T01:30:29.368Z,7.73
2023-04-15T01:32:58.309Z,7.78
2023-04-15T01:35:25.093Z,7.75
2023-04-15T01:37:51.784Z,7.67
2023-04-15T01:40:20.784Z,7.78
2023-04-15T01:42:49.835Z,7.76
2023-04-15T01:45:16.733Z,7.78
2023-04-15T01:47:45.710Z,7.73
2023-04-15T01:50:14.458Z,7.67
2023-04-15T01:52:43.700Z,7.77
2023-04-15T01:55:14.044Z,7.79
2023-04-15T01:57:41.228Z,7.78
2023-04-15T02:00:08.544Z,7.76
2023-04-15T02:02:36.035Z,7.62
2023-04-15T02:05:05.677Z,7.80
2023-04-15T02:07:32.524Z,7.78
2023-04-15T02:09:59.213Z,7.84
2023-04-15T02:12:28.144Z,7.84
2023-04-15T02:14:57.011Z,7.84
2023-04-15T02:17:23.662Z,7.77
2023-04-15T02:19:52.679Z,7.66
2023-04-15T02:22:21.742Z,7.77
2023-04-15T02:24:48.589Z,7.76
2023-04-15T02:27:22.553Z,7.65
2023-04-15T02:29:51.453Z,7.65
2023-04-15T02:32:18.780Z,7.69
2023-04-15T02:34:47.635Z,7.69
2023-04-15T02:37:14.383Z,7.71
2023-04-15T02:39:43.645Z,7.56
2023-04-15T02:42:10.214Z,7.71
2023-04-15T02:44:36.875Z,7.69
2023-04-15T02:47:04.963Z,7.81
2023-04-15T02:49:31.584Z,7.83
2023-04-15T02:51:59.997Z,7.86
2023-04-15T02:54:29.987Z,7.78
2023-04-15T02:56:59.053Z,7.89
2023-04-15T02:59:25.862Z,7.84
2023-04-15T03:01:56.552Z,7.71
2023-04-15T03:04:23.230Z,7.91
2023-04-15T03:06:49.887Z,7.90
2023-04-15T03:09:18.698Z,7.85
2023-04-15T03:11:45.317Z,7.96
2023-04-15T03:14:14.024Z,7.94
2023-04-15T03:16:40.744Z,7.94
2023-04-15T03:19:07.520Z,8.00
2023-04-15T03:21:37.077Z,7.98
2023-04-15T03:24:06.907Z,8.01
2023-04-15T03:26:33.569Z,7.77
2023-04-15T03:29:03.019Z,8.00
2023-04-15T03:31:30.010Z,8.00
2023-04-15T03:33:58.972Z,8.00
2023-04-15T03:36:26.330Z,7.99
2023-04-15T03:38:56.223Z,7.97
2023-04-15T03:41:27.422Z,8.01
2023-04-15T03:43:54.200Z,8.02
2023-04-15T03:46:21.016Z,8.02
2023-04-15T03:48:48.353Z,7.98
2023-04-15T03:51:14.983Z,7.99
2023-04-15T03:53:41.577Z,7.96
2023-04-15T03:56:08.256Z,7.96
2023-04-15T03:58:34.876Z,7.94
2023-04-15T04:01:01.464Z,7.88
2023-04-15T04:03:30.410Z,7.79
2023-04-15T04:05:57.180Z,7.96
2023-04-15T04:08:23.742Z,7.99
2023-04-15T04:10:50.448Z,8.02
2023-04-15T04:13:17.158Z,7.91
2023-04-15T04:15:43.844Z,7.97
2023-04-15T04:18:10.479Z,8.13
2023-04-15T04:20:39.296Z,8.15
2023-04-15T04:23:06.117Z,8.16
2023-04-15T04:25:33.208Z,8.20
2023-04-15T04:27:59.832Z,8.21
2023-04-15T04:30:26.447Z,8.24
2023-04-15T04:32:53.229Z,8.21
2023-04-15T04:35:22.757Z,8.20
2023-04-15T04:37:49.352Z,8.26
2023-04-15T04:40:18.427Z,8.23
2023-04-15T04:42:45.179Z,8.26
2023-04-15T04:45:11.832Z,8.31
2023-04-15T04:47:38.489Z,8.30
2023-04-15T04:50:05.642Z,8.32
2023-04-15T04:52:32.230Z,8.34
2023-04-15T04:54:58.892Z,8.37
2023-04-15T04:57:25.583Z,8.39
2023-04-15T04:59:52.639Z,8.39
2023-04-15T05:02:23.890Z,8.41
2023-04-15T05:04:52.149Z,8.29
2023-04-15T05:07:20.863Z,8.38
2023-04-15T05:09:47.564Z,8.44
2023-04-15T05:12:16.431Z,8.45
2023-04-15T05:14:46.870Z,8.45
2023-04-15T05:17:15.832Z,8.24
2023-04-15T05:19:42.537Z,8.39
2023-04-15T05:22:09.213Z,8.35
2023-04-15T05:24:35.897Z,8.44
2023-04-15T05:27:02.846Z,8.48
2023-04-15T05:29:29.606Z,8.38
2023-04-15T05:31:59.043Z,8.52
2023-04-15T05:34:25.674Z,8.49
2023-04-15T05:36:52.700Z,8.54
2023-04-15T05:39:19.314Z,8.42
2023-04-15T05:41:45.951Z,8.59
2023-04-15T05:44:17.384Z,8.38
2023-04-15T05:46:48.563Z,8.61
2023-04-15T05:49:15.120Z,8.46
2023-04-15T05:51:41.768Z,8.64
2023-04-15T05:54:10.887Z,8.51
2023-04-15T05:56:39.787Z,8.58
2023-04-15T05:59:08.878Z,8.70
2023-04-15T06:01:37.856Z,8.73
2023-04-15T06:04:05.009Z,8.72
2023-04-15T06:06:32.625Z,8.78
2023-04-15T06:08:59.849Z,8.79
2023-04-15T06:11:27.386Z,8.77
2023-04-15T06:13:54.117Z,8.87
2023-04-15T06:16:20.781Z,8.89
2023-04-15T06:18:47.477Z,8.96
2023-04-15T06:21:14.246Z,8.77
2023-04-15T06:23:43.701Z,8.99
2023-04-15T06:26:12.605Z,9.14
2023-04-15T06:28:39.281Z,9.18
2023-04-15T06:31:06.480Z,9.34
2023-04-15T06:33:35.284Z,9.33
2023-04-15T06:36:02.475Z,9.54
2023-04-15T06:38:31.507Z,9.55
2023-04-15T06:40:58.267Z,9.80
2023-04-15T06:43:25.034Z,9.84
2023-04-15T06:45:56.636Z,9.81
2023-04-15T06:48:23.281Z,9.89
2023-04-15T06:50:55.269Z,9.96
2023-04-15T06:53:24.967Z,9.88
2023-04-15T06:55:53.787Z,9.93
2023-04-15T06:58:25.508Z,9.95
2023-04-15T07:00:53.281Z,9.94
2023-04-15T07:03:22.548Z,9.93
2023-04-15T07:05:49.146Z,9.91
2023-04-15T07:08:15.899Z,9.98
2023-04-15T07:10:42.675Z,9.97
2023-04-15T07:13:09.325Z,10.00
2023-04-15T07:15:38.194Z,10.02
2023-04-15T07:18:04.908Z,9.90
2023-04-15T07:20:31.835Z,9.94
2023-04-15T07:23:00.947Z,10.10
2023-04-15T07:25:27.601Z,10.24
2023-04-15T07:27:54.321Z,10.42
2023-04-15T07:30:20.974Z,10.46
2023-04-15T07:32:47.634Z,10.70
2023-04-15T07:35:14.778Z,10.80
2023-04-15T07:37:43.736Z,10.87
2023-04-15T07:40:11.086Z,10.82
2023-04-15T07:42:40.737Z,10.91
2023-04-15T07:45:10.940Z,10.85
2023-04-15T07:47:37.563Z,10.79
2023-04-15T07:50:04.593Z,10.72
2023-04-15T07:52:39.161Z,10.67
2023-04-15T07:55:10.864Z,10.66
2023-04-15T07:57:37.733Z,10.70
2023-04-15T08:00:05.866Z,10.73
2023-04-15T08:02:35.142Z,10.72
2023-04-15T08:05:04.453Z,10.69
2023-04-15T08:07:31.476Z,10.80
2023-04-15T08:09:58.101Z,10.83
2023-04-15T08:12:24.778Z,10.93
2023-04-15T08:14:52.266Z,11.15
2023-04-15T08:17:18.983Z,11.42
2023-04-15T08:19:48.463Z,11.81
2023-04-15T08:22:18.087Z,12.30
2023-04-15T08:24:47.729Z,12.84
2023-04-15T08:27:16.597Z,13.36
2023-04-15T08:29:45.662Z,14.01
2023-04-15T08:32:15.052Z,14.31
2023-04-15T08:34:44.195Z,14.56
2023-04-15T08:37:11.476Z,14.88
2023-04-15T08:39:39.244Z,15.21
2023-04-15T08:42:12.240Z,15.83
2023-04-15T08:44:40.382Z,16.35
2023-04-15T08:47:16.617Z,16.60
2023-04-15T08:49:43.554Z,16.71
2023-04-15T08:52:10.830Z,16.67
2023-04-15T08:54:38.907Z,16.89
2023-04-15T08:57:06.803Z,17.17
2023-04-15T08:59:35.730Z,17.34
2023-04-15T09:02:04.051Z,17.33
2023-04-15T09:04:32.994Z,17.71
2023-04-15T09:06:59.648Z,17.79
2023-04-15T09:09:27.438Z,17.95
2023-04-15T09:11:57.490Z,17.99
2023-04-15T09:14:24.271Z,18.16
2023-04-15T09:17:07.199Z,18.56
2023-04-15T09:19:34.660Z,18.68
2023-04-15T09:22:02.393Z,18.80
2023-04-15T09:24:40.422Z,18.88
2023-04-15T09:27:07.431Z,19.07
2023-04-15T09:29:37.533Z,19.18
2023-04-15T09:32:17.823Z,19.06
2023-04-15T09:34:44.779Z,18.78
2023-04-15T09:37:29.105Z,18.24
2023-04-15T09:39:59.106Z,17.67
2023-04-15T09:42:28.731Z,17.25
2023-04-15T09:44:57.955Z,16.89
2023-04-15T09:47:32.340Z,16.52
2023-04-15T09:50:01.278Z,16.60
2023-04-15T09:52:29.035Z,16.90
2023-04-15T09:55:00.907Z,17.10
2023-04-15T09:57:36.547Z,17.31
2023-04-15T10:00:08.464Z,17.47
2023-04-15T10:02:36.834Z,17.48
2023-04-15T10:05:06.359Z,17.45
2023-04-15T10:07:34.037Z,17.33
2023-04-15T10:10:02.577Z,17.23
2023-04-15T10:12:31.229Z,17.27
2023-04-15T10:15:06.056Z,17.14
2023-04-15T10:17:35.598Z,17.04
2023-04-15T10:20:04.929Z,17.04
2023-04-15T10:22:34.140Z,17.21
2023-04-15T10:25:02.917Z,17.40
2023-04-15T10:27:30.444Z,17.55
2023-04-15T10:29:57.559Z,17.22
2023-04-15T10:32:25.642Z,16.99
2023-04-15T10:34:54.580Z,16.66
2023-04-15T10:37:41.924Z,16.80
2023-04-15T10:40:27.405Z,16.88
2023-04-15T10:42:58.110Z,17.21
2023-04-15T10:45:37.255Z,17.28
2023-04-15T10:48:08.944Z,17.21
2023-04-15T10:50:39.873Z,17.20
2023-04-15T10:53:06.639Z,17.21
2023-04-15T10:55:34.208Z,17.38
2023-04-15T10:58:02.264Z,17.45
2023-04-15T11:00:31.538Z,17.41
2023-04-15T11:03:12.298Z,17.28
2023-04-15T11:05:41.792Z,17.03
2023-04-15T11:08:09.992Z,16.81
2023-04-15T11:10:36.642Z,16.77
2023-04-15T11:13:05.628Z,16.86
2023-04-15T11:15:46.513Z,16.90
2023-04-15T11:18:18.049Z,16.99
2023-04-15T11:20:50.691Z,16.85
2023-04-15T11:23:38.895Z,17.00
2023-04-15T11:26:10.231Z,17.28
2023-04-15T11:28:39.064Z,17.44
2023-04-15T11:31:11.423Z,17.24
2023-04-15T11:33:39.940Z,16.91
2023-04-15T11:36:06.906Z,16.60
2023-04-15T11:38:34.605Z,16.32
2023-04-15T11:41:01.339Z,16.03
2023-04-15T11:43:31.037Z,15.94
2023-04-15T11:45:59.794Z,15.81
2023-04-15T11:48:32.683Z,15.78
2023-04-15T11:51:07.750Z,15.80
2023-04-15T11:53:43.209Z,16.06
2023-04-15T11:56:10.669Z,16.29
2023-04-15T11:58:38.572Z,16.30
2023-04-15T12:01:07.849Z,16.28
2023-04-15T12:03:48.400Z,16.34
2023-04-15T12:06:19.667Z,16.27
2023-04-15T12:08:52.881Z,16.24
2023-04-15T12:11:34.174Z,16.17
2023-04-15T12:14:22.788Z,16.07
2023-04-15T12:16:54.019Z,16.02
2023-04-15T12:19:25.343Z,15.99
2023-04-15T12:21:54.120Z,15.98
2023-04-15T12:24:25.073Z,16.00
2023-04-15T12:26:54.946Z,16.07
2023-04-15T12:29:27.851Z,16.10
2023-04-15T12:32:21.992Z,16.17
2023-04-15T12:34:54.504Z,16.14
2023-04-15T12:37:21.922Z,16.23
2023-04-15T12:39:50.216Z,16.17
2023-04-15T12:42:17.852Z,16.31
2023-04-15T12:44:44.875Z,16.27
2023-04-15T12:47:12.445Z,16.24
2023-04-15T12:49:39.855Z,16.33
2023-04-15T12:52:06.805Z,16.41
2023-04-15T12:54:36.442Z,16.44
2023-04-15T12:57:06.796Z,16.51
2023-04-15T12:59:36.718Z,16.49
2023-04-15T13:02:03.991Z,16.50
2023-04-15T13:04:31.724Z,16.52
2023-04-15T13:06:58.523Z,16.62
2023-04-15T13:09:27.328Z,16.64
2023-04-15T13:11:54.637Z,16.65
2023-04-15T13:14:21.566Z,16.70
2023-04-15T13:16:48.450Z,16.77
2023-04-15T13:19:15.145Z,16.72
2023-04-15T13:21:44.198Z,16.70
2023-04-15T13:24:13.324Z,16.52
2023-04-15T13:26:39.949Z,16.65
2023-04-15T13:29:06.888Z,16.43
2023-04-15T13:31:33.600Z,16.34
2023-04-15T13:34:02.726Z,16.37
2023-04-15T13:36:29.584Z,16.33
2023-04-15T13:38:57.088Z,16.51
2023-04-15T13:41:28.225Z,16.60
2023-04-15T13:43:54.851Z,16.79
2023-04-15T13:46:21.500Z,16.68
2023-04-15T13:48:48.164Z,16.72
2023-04-15T13:51:14.926Z,16.55
2023-04-15T13:53:41.718Z,16.41
2023-04-15T13:56:11.231Z,16.25
2023-04-15T13:58:38.592Z,16.17
2023-04-15T14:01:07.027Z,16.15
2023-04-15T14:03:40.581Z,16.18
2023-04-15T14:06:07.425Z,16.29
2023-04-15T14:08:36.548Z,16.35
2023-04-15T14:11:03.246Z,16.40
2023-04-15T14:13:30.054Z,16.55
2023-04-15T14:15:59.398Z,16.57
2023-04-15T14:18:26.250Z,16.57
2023-04-15T14:20:52.869Z,16.61
2023-04-15T14:23:19.663Z,16.72
2023-04-15T14:25:48.172Z,16.79
2023-04-15T14:28:15.426Z,16.94
2023-04-15T14:30:42.148Z,17.26
2023-04-15T14:33:08.847Z,17.34
2023-04-15T14:35:35.946Z,17.49
2023-04-15T14:38:06.097Z,17.40
2023-04-15T14:40:33.834Z,17.29
2023-04-15T14:43:03.473Z,17.39
2023-04-15T14:45:30.999Z,17.26
2023-04-15T14:47:57.706Z,17.26
2023-04-15T14:50:26.822Z,17.18
2023-04-15T14:52:55.827Z,17.08
2023-04-15T14:55:22.705Z,16.92
2023-04-15T14:57:51.558Z,16.91
2023-04-15T15:00:18.299Z,16.79
2023-04-15T15:02:45.390Z,16.77
2023-04-15T15:05:12.553Z,16.79
2023-04-15T15:07:42.165Z,16.79
2023-04-15T15:10:09.287Z,16.79
2023-04-15T15:12:36.443Z,16.75
2023-04-15T15:15:15.755Z,16.81
2023-04-15T15:17:54.402Z,16.84
2023-04-15T15:20:24.271Z,16.83
2023-04-15T15:22:53.330Z,16.84
2023-04-15T15:25:25.984Z,16.84
2023-04-15T15:27:54.944Z,16.82
2023-04-15T15:30:21.587Z,16.79
2023-04-15T15:32:50.696Z,16.88
2023-04-15T15:35:17.461Z,17.11
2023-04-15T15:37:46.384Z,17.02
2023-04-15T15:40:13.191Z,17.15
2023-04-15T15:42:39.838Z,17.26
2023-04-15T15:45:07.102Z,17.29
2023-04-15T15:47:36.336Z,17.26
2023-04-15T15:50:05.526Z,17.23
2023-04-15T15:52:32.865Z,17.14
2023-04-15T15:54:59.558Z,16.94
2023-04-15T15:57:26.247Z,16.93
2023-04-15T16:00:07.917Z,16.85
2023-04-15T16:03:05.072Z,16.59
2023-04-15T16:05:29.282Z,16.50
2023-04-15T16:07:55.967Z,16.42
2023-04-15T16:10:22.620Z,16.45
2023-04-15T16:12:49.413Z,16.49
2023-04-15T16:15:16.099Z,16.57
2023-04-15T16:17:42.770Z,16.59
2023-04-15T16:20:09.812Z,16.62
2023-04-15T16:22:36.538Z,16.52
2023-04-15T16:25:05.716Z,16.54
2023-04-15T16:27:38.510Z,16.52
2023-04-15T16:30:14.407Z,16.54
2023-04-15T16:32:41.316Z,16.53
2023-04-15T16:35:08.476Z,16.39
2023-04-15T16:37:36.195Z,16.44
2023-04-15T16:40:04.290Z,16.40
2023-04-15T16:42:31.127Z,16.24
2023-04-15T16:45:00.628Z,16.42
2023-04-15T16:47:29.559Z,16.43
2023-04-15T16:49:56.437Z,16.44
2023-04-15T16:52:23.051Z,16.52
2023-04-15T16:54:49.719Z,16.53
2023-04-15T16:57:16.397Z,16.44
2023-04-15T16:59:45.490Z,16.50
2023-04-15T17:02:13.830Z,16.48
2023-04-15T17:04:43.302Z,16.49
2023-04-15T17:07:12.512Z,16.48
2023-04-15T17:09:40.442Z,16.48
2023-04-15T17:12:07.737Z,16.40
2023-04-15T17:14:36.878Z,16.28
2023-04-15T17:17:03.536Z,16.39
2023-04-15T17:19:32.722Z,16.32
2023-04-15T17:22:02.306Z,16.06
2023-04-15T17:24:29.028Z,16.14
2023-04-15T17:26:57.726Z,16.28
2023-04-15T17:29:24.924Z,16.26
2023-04-15T17:31:51.607Z,16.22
2023-04-15T17:34:18.399Z,16.11
2023-04-15T17:36:45.239Z,16.15
2023-04-15T17:39:12.042Z,16.11
2023-04-15T17:41:41.618Z,16.00
2023-04-15T17:44:08.232Z,16.03
2023-04-15T17:46:35.028Z,15.99
2023-04-15T17:49:01.979Z,15.91
2023-04-15T17:51:28.579Z,15.92
2023-04-15T17:53:58.130Z,15.77
2023-04-15T17:56:27.918Z,15.80
2023-04-15T17:58:55.639Z,15.75
2023-04-15T18:01:24.712Z,15.57
2023-04-15T18:03:51.598Z,15.63
2023-04-15T18:06:21.368Z,15.55
2023-04-15T18:08:59.242Z,15.48
2023-04-15T18:11:26.168Z,15.15
2023-04-15T18:13:52.777Z,15.31
2023-04-15T18:16:19.596Z,15.28
2023-04-15T18:18:46.304Z,15.20
2023-04-15T18:21:13.845Z,15.13
2023-04-15T18:23:43.650Z,15.06
2023-04-15T18:26:13.282Z,15.00
2023-04-15T18:28:39.976Z,14.91
2023-04-15T18:31:06.680Z,14.84
2023-04-15T18:33:35.862Z,14.78
2023-04-15T18:36:02.717Z,14.60
2023-04-15T18:38:34.120Z,14.65
2023-04-15T18:41:03.007Z,14.57
2023-04-15T18:43:32.340Z,14.52
2023-04-15T18:46:00.129Z,14.45
2023-04-15T18:48:27.273Z,14.39
2023-04-15T18:50:54.076Z,14.30
2023-04-15T18:53:21.652Z,14.26
2023-04-15T18:55:48.416Z,14.19
2023-04-15T18:58:15.121Z,14.14
2023-04-15T19:00:43.941Z,14.07
2023-04-15T19:03:11.589Z,14.02
2023-04-15T19:05:38.475Z,13.93
2023-04-15T19:08:05.470Z,13.86
2023-04-15T19:10:34.350Z,13.60
2023-04-15T19:13:01.189Z,13.65
2023-04-15T19:15:29.110Z,13.69
2023-04-15T19:17:55.897Z,13.59
2023-04-15T19:20:22.630Z,13.60
2023-04-15T19:22:49.373Z,13.55
2023-04-15T19:25:15.994Z,13.47
2023-04-15T19:27:44.970Z,13.33
2023-04-15T19:30:11.763Z,13.40
2023-04-15T19:32:40.533Z,13.34
2023-04-15T19:35:11.646Z,13.28
2023-04-15T19:37:38.538Z,13.25
2023-04-15T19:40:08.680Z,13.19
2023-04-15T19:42:35.407Z,13.10
2023-04-15T19:45:02.177Z,13.06
2023-04-15T19:47:36.275Z,13.04
2023-04-15T19:50:07.468Z,12.96
2023-04-15T19:52:34.608Z,12.97
2023-04-15T19:55:03.850Z,12.81
2023-04-15T19:57:30.466Z,12.89
2023-04-15T19:59:59.516Z,12.81
2023-04-15T20:02:26.380Z,12.77
2023-04-15T20:04:55.630Z,12.70
2023-04-15T20:07:22.265Z,12.53
2023-04-15T20:09:49.097Z,12.46
2023-04-15T20:12:50.257Z,12.60
2023-04-15T20:15:03.539Z,12.56
2023-04-15T20:17:33.262Z,12.53
2023-04-15T20:19:59.900Z,12.47
2023-04-15T20:22:26.736Z,12.36
2023-04-15T20:24:53.380Z,12.42
2023-04-15T20:27:23.096Z,12.36
2023-04-15T20:29:52.538Z,12.31
2023-04-15T20:32:19.242Z,12.25
2023-04-15T20:34:48.243Z,12.23
2023-04-15T20:37:17.700Z,12.23
2023-04-15T20:39:46.514Z,12.11
2023-04-15T20:42:13.256Z,12.15
2023-04-15T20:44:42.404Z,12.01
2023-04-15T20:47:09.014Z,12.03
2023-04-15T20:49:39.637Z,11.99
2023-04-15T20:52:07.855Z,11.95
2023-04-15T20:54:34.669Z,11.88
2023-04-15T20:57:01.847Z,11.88
2023-04-15T20:59:28.577Z,11.84
2023-04-15T21:01:57.022Z,11.79
2023-04-15T21:04:24.626Z,11.71
2023-04-15T21:06:52.354Z,11.75
2023-04-15T21:09:19.206Z,11.72
2023-04-15T21:12:00.499Z,11.72
2023-04-15T21:14:30.410Z,11.61
2023-04-15T21:16:58.159Z,11.68
2023-04-15T21:19:27.019Z,11.67
2023-04-15T21:21:53.613Z,11.56
2023-04-15T21:24:22.730Z,11.63
2023-04-15T21:26:49.486Z,11.64
2023-04-15T21:29:16.187Z,11.62
2023-04-15T21:31:42.923Z,11.50
2023-04-15T21:34:12.615Z,11.50
2023-04-15T21:36:41.462Z,11.55
2023-04-15T21:39:08.285Z,11.43
2023-04-15T21:41:37.777Z,11.36
2023-04-15T21:44:04.507Z,11.47
2023-04-15T21:46:32.684Z,11.46
2023-04-15T21:49:01.318Z,11.45
2023-04-15T21:51:28.150Z,11.42
2023-04-15T21:53:54.870Z,11.25
2023-04-15T21:56:24.713Z,11.32
2023-04-15T21:58:56.489Z,11.28
2023-04-15T22:01:23.948Z,11.23
2023-04-15T22:03:53.165Z,11.23
2023-04-15T22:06:22.407Z,11.21
2023-04-15T22:08:56.832Z,11.03
2023-04-15T22:11:27.661Z,11.16
2023-04-15T22:13:55.055Z,11.14
2023-04-15T22:16:21.850Z,10.95
2023-04-15T22:18:48.724Z,11.18
2023-04-15T22:21:20.038Z,11.22
2023-04-15T22:23:48.039Z,11.19
2023-04-15T22:26:15.157Z,11.16
2023-04-15T22:28:42.179Z,11.18
2023-04-15T22:31:09.027Z,11.18
2023-04-15T22:33:35.775Z,11.18
2023-04-15T22:36:04.776Z,11.19
2023-04-15T22:38:31.531Z,11.07
2023-04-15T22:40:58.491Z,11.18
2023-04-15T22:43:27.876Z,11.18
2023-04-15T22:45:55.129Z,11.18
2023-04-15T22:48:22.627Z,11.12
2023-04-15T22:50:49.583Z,11.18
2023-04-15T22:53:17.412Z,11.17
2023-04-15T22:55:47.949Z,11.26
2023-04-15T22:58:15.398Z,11.23
2023-04-15T23:00:42.276Z,11.31
2023-04-15T23:03:09.163Z,11.27
2023-04-15T23:05:40.120Z,11.31
2023-04-15T23:08:07.615Z,11.28
2023-04-15T23:10:34.307Z,11.33
2023-04-15T23:13:00.949Z,11.36
2023-04-15T23:15:29.795Z,11.35
2023-04-15T23:17:56.576Z,11.40
2023-04-15T23:20:23.490Z,11.40
2023-04-15T23:22:52.340Z,11.43
2023-04-15T23:25:22.262Z,11.43
2023-04-15T23:27:48.935Z,11.44
2023-04-15T23:30:15.597Z,11.42
2023-04-15T23:32:45.238Z,11.42
2023-04-15T23:35:11.927Z,11.29
2023-04-15T23:37:38.540Z,11.45
2023-04-15T23:40:06.069Z,11.44
2023-04-15T23:42:32.888Z,11.43
2023-04-15T23:44:59.531Z,11.43
2023-04-15T23:47:26.346Z,11.36
2023-04-15T23:49:53.115Z,11.37
2023-04-15T23:52:19.794Z,11.42
2023-04-15T23:54:46.455Z,11.45
2023-04-15T23:57:13.109Z,11.31
2023-04-15T23:59:42.148Z,11.51
